Hauptseite
METAR-TAF:

METAR-TAF

Flughäfen :

Geilenkirchen, Deutschland

NATO-Flugplatz Geilenkirchen

Breite: 50-57-39N, Länge: 006-2-33E, Höhe: 90 m

Beobachtung

Neuester Wetterbericht von vor 15 Stunden und 39 Minuten, um 16:50 UTC
Wind 1 kt aus Südwest
Temperatur 3°C
Luftfeuchtigkeit 87%
Luftdruck 1026 hPa
Sichtweite 10 km oder mehr
Leicht bewölkt in der Höhe von 4000 ft

METAR: ETNG 171650Z 23001KT 9999 FEW040 03/01 Q1026 NOSIG

Zeit: 09:29 (08:29 UTC)

Prognose

Neuester Wetterbericht von vor 15 Stunden und 29 Minuten, um 17:00 UTC
Gültige Prognose vom 17 um 18 UTC bis 18 um 09 UTC
Wind 3 kt aus Süd/Südwest
Sichtweite 10 km oder mehr
keine Wolken unter 1500 m und keine Kumulonimbus oder Gewitterwolken
Übergehend zu
vom 18 um 07 UTC bis 18 um 09 UTC
Wind 10 kt aus West/Südwest
Aufgelockert bewölkt in der Höhe von 2500 ft

TAF: ETNG 171700Z 1718/1809 21003KT CAVOK BECMG 1807/1809 24010KT SCT025

Wetterbeobachtungen und Prognosen von mehr als 4000 Flughäfen (METAR und TAF Bericht).

Die verfügbaren Stationen werden durch gelbe und rote Markierungen auf der Karte dargestellt.

Führen Sie die Maus auf sie, um den Namen der Station zu sehen.

Darauf klicken, um die Beobachtung von Wetterbeobachtungen und Prognosen zu sehen.

Um die Karte zu ändern : klicken Sie auf den grünen Tasten mit einem schwarzen Kreuz Zum Vergrößern, auf den grünen Button mit einem Gedankenstrich zu verkleinern, oder auf die grünen Pfeile für benachbarte Karten.


METAR-TAF: